createdAt,value
2018-06-23T00:00:26.765Z,63.73
2018-06-23T00:01:26.767Z,63.92
2018-06-23T00:02:26.828Z,64.50
2018-06-23T00:03:26.793Z,63.92
2018-06-23T00:04:26.797Z,64.56
2018-06-23T00:05:26.818Z,64.66
2018-06-23T00:06:26.819Z,64.79
2018-06-23T00:07:26.866Z,64.56
2018-06-23T00:08:26.879Z,64.40
2018-06-23T00:09:26.914Z,64.31
2018-06-23T00:10:27.031Z,64.66
2018-06-23T00:11:26.929Z,64.09
2018-06-23T00:12:26.894Z,64.95
2018-06-23T00:13:26.922Z,64.56
2018-06-23T00:14:26.919Z,64.66
2018-06-23T00:15:26.928Z,64.56
2018-06-23T00:16:26.967Z,64.56
2018-06-23T00:17:27.004Z,63.83
2018-06-23T00:18:26.963Z,63.64
2018-06-23T00:19:26.972Z,64.31
2018-06-23T00:20:27.036Z,63.73
2018-06-23T00:21:26.989Z,63.92
2018-06-23T00:22:27.013Z,64.31
2018-06-23T00:23:27.009Z,63.73
2018-06-23T00:24:27.014Z,63.73
2018-06-23T00:25:27.027Z,63.92
2018-06-23T00:26:27.114Z,63.64
2018-06-23T00:27:27.161Z,64.12
2018-06-23T00:28:27.059Z,63.42
2018-06-23T00:29:27.087Z,63.60
2018-06-23T00:30:27.129Z,63.35
2018-06-23T00:31:27.108Z,63.54
2018-06-23T00:32:27.119Z,63.73
2018-06-23T00:33:27.132Z,63.54
2018-06-23T00:34:27.134Z,63.64
2018-06-23T00:35:27.169Z,63.64
2018-06-23T00:36:27.160Z,63.45
2018-06-23T00:37:27.161Z,63.54
2018-06-23T00:38:27.178Z,63.45
2018-06-23T00:39:27.186Z,63.45
2018-06-23T00:40:27.246Z,63.54
2018-06-23T00:41:27.199Z,63.73
2018-06-23T00:42:27.221Z,63.64
2018-06-23T00:43:27.221Z,64.12
2018-06-23T00:44:27.268Z,63.60
2018-06-23T00:45:27.272Z,63.80
2018-06-23T00:46:27.264Z,64.09
2018-06-23T00:47:27.297Z,64.09
2018-06-23T00:48:27.288Z,63.89
2018-06-23T00:49:27.300Z,63.99
2018-06-23T00:50:27.308Z,63.99
2018-06-23T00:51:27.324Z,63.99
2018-06-23T00:52:27.371Z,63.60
2018-06-23T00:53:27.336Z,63.42
2018-06-23T00:54:27.349Z,64.28
2018-06-23T00:55:27.397Z,64.18
2018-06-23T00:56:27.375Z,63.32
2018-06-23T00:57:27.389Z,63.70
2018-06-23T00:58:27.443Z,63.51
2018-06-23T00:59:27.414Z,64.09
2018-06-23T01:00:27.427Z,63.51
2018-06-23T01:01:27.418Z,63.70
2018-06-23T01:02:27.464Z,63.51
2018-06-23T01:03:27.487Z,63.99
2018-06-23T01:04:27.455Z,63.51
2018-06-23T01:05:27.495Z,64.18
2018-06-23T01:06:27.473Z,64.18
2018-06-23T01:07:27.478Z,64.18
2018-06-23T01:08:27.626Z,63.60
2018-06-23T01:09:27.525Z,63.70
2018-06-23T01:10:27.547Z,63.99
2018-06-23T01:11:27.533Z,63.99
2018-06-23T01:12:27.575Z,64.28
2018-06-23T01:13:27.571Z,63.99
2018-06-23T01:14:27.554Z,64.09
2018-06-23T01:15:27.571Z,63.70
2018-06-23T01:16:27.593Z,63.99
2018-06-23T01:17:27.670Z,63.60
2018-06-23T01:18:27.647Z,63.51
2018-06-23T01:19:27.609Z,63.42
2018-06-23T01:20:27.657Z,63.70
2018-06-23T01:21:27.641Z,63.60
2018-06-23T01:22:27.680Z,64.18
2018-06-23T01:23:27.661Z,63.51
2018-06-23T01:24:27.687Z,63.42
2018-06-23T01:25:27.682Z,63.60
2018-06-23T01:26:27.697Z,63.51
2018-06-23T01:27:27.756Z,63.70
2018-06-23T01:28:27.736Z,63.22
2018-06-23T01:29:27.729Z,62.84
2018-06-23T01:30:27.728Z,63.22
2018-06-23T01:31:27.753Z,63.03
2018-06-23T01:32:27.805Z,62.93
2018-06-23T01:33:27.760Z,62.65
2018-06-23T01:34:27.790Z,62.74
2018-06-23T01:35:27.805Z,62.55
2018-06-23T01:36:27.801Z,62.17
2018-06-23T01:37:27.845Z,62.07
2018-06-23T01:38:27.864Z,62.46
2018-06-23T01:39:27.844Z,61.88
2018-06-23T01:40:27.838Z,61.79
2018-06-23T01:41:27.850Z,61.88
2018-06-23T01:42:27.911Z,61.02
2018-06-23T01:43:27.863Z,61.50
2018-06-23T01:44:27.894Z,61.88
2018-06-23T01:45:27.911Z,61.88
2018-06-23T01:46:27.907Z,61.88
2018-06-23T01:47:27.944Z,62.07
2018-06-23T01:48:27.941Z,61.98
2018-06-23T01:49:28.010Z,62.07
2018-06-23T01:50:27.956Z,61.88
2018-06-23T01:51:27.966Z,61.31
2018-06-23T01:52:28.021Z,60.83
2018-06-23T01:53:28.049Z,61.02
2018-06-23T01:54:27.991Z,61.11
2018-06-23T01:55:28.028Z,61.31
2018-06-23T01:56:28.009Z,60.35
2018-06-23T01:57:28.054Z,60.73
2018-06-23T01:58:28.063Z,60.73
2018-06-23T01:59:28.077Z,60.25
2018-06-23T02:00:28.075Z,60.16
2018-06-23T02:01:28.071Z,60.25
2018-06-23T02:02:28.090Z,59.77
2018-06-23T02:03:28.091Z,60.16
2018-06-23T02:04:28.148Z,60.16
2018-06-23T02:05:28.107Z,60.16
2018-06-23T02:06:28.119Z,59.97
2018-06-23T02:07:28.163Z,59.87
2018-06-23T02:08:28.143Z,60.06
2018-06-23T02:09:28.199Z,60.35
2018-06-23T02:10:28.176Z,60.35
2018-06-23T02:11:28.209Z,59.97
2018-06-23T02:12:28.196Z,59.97
2018-06-23T02:13:28.212Z,59.97
2018-06-23T02:14:28.233Z,60.44
2018-06-23T02:15:28.253Z,60.16
2018-06-23T02:16:28.262Z,59.97
2018-06-23T02:17:28.277Z,59.97
2018-06-23T02:18:28.275Z,60.44
2018-06-23T02:19:28.260Z,60.25
2018-06-23T02:20:28.262Z,60.25
2018-06-23T02:21:28.281Z,59.87
2018-06-23T02:22:28.320Z,59.97
2018-06-23T02:23:28.343Z,60.06
2018-06-23T02:24:28.325Z,60.06
2018-06-23T02:25:28.362Z,60.16
2018-06-23T02:26:28.346Z,59.77
2018-06-23T02:27:28.355Z,60.25
2018-06-23T02:28:28.399Z,60.16
2018-06-23T02:29:28.376Z,60.25
2018-06-23T02:30:28.382Z,59.68
2018-06-23T02:31:28.400Z,59.97
2018-06-23T02:32:28.394Z,60.06
2018-06-23T02:33:28.464Z,60.06
2018-06-23T02:34:28.420Z,59.75
2018-06-23T02:35:28.426Z,59.36
2018-06-23T02:36:28.434Z,59.39
2018-06-23T02:37:28.461Z,59.27
2018-06-23T02:38:28.499Z,58.88
2018-06-23T02:39:28.552Z,59.01
2018-06-23T02:40:28.491Z,59.01
2018-06-23T02:41:28.512Z,58.40
2018-06-23T02:42:28.515Z,58.53
2018-06-23T02:43:28.521Z,58.34
2018-06-23T02:44:28.599Z,58.59
2018-06-23T02:45:28.574Z,58.50
2018-06-23T02:46:28.553Z,58.50
2018-06-23T02:47:28.560Z,58.31
2018-06-23T02:48:29.366Z,58.50
2018-06-23T02:49:28.578Z,58.40
2018-06-23T02:50:28.619Z,58.59
2018-06-23T02:51:28.664Z,58.12
2018-06-23T02:52:28.628Z,58.40
2018-06-23T02:53:28.620Z,58.59
2018-06-23T02:54:28.636Z,58.40
2018-06-23T02:55:28.677Z,58.40
2018-06-23T02:56:28.688Z,58.12
2018-06-23T02:57:28.664Z,58.22
2018-06-23T02:58:28.670Z,58.22
2018-06-23T02:59:28.709Z,58.69
2018-06-23T03:00:28.694Z,57.83
2018-06-23T03:01:28.758Z,58.02
2018-06-23T03:02:28.758Z,57.16
2018-06-23T03:03:28.749Z,57.16
2018-06-23T03:04:28.756Z,57.06
2018-06-23T03:05:28.758Z,57.35
2018-06-23T03:06:28.784Z,57.06
2018-06-23T03:07:28.812Z,57.26
2018-06-23T03:08:28.790Z,57.26
2018-06-23T03:09:28.796Z,57.26
2018-06-23T03:10:28.806Z,57.16
2018-06-23T03:11:28.818Z,57.35
2018-06-23T03:12:28.863Z,57.26
2018-06-23T03:13:28.849Z,57.64
2018-06-23T03:14:28.845Z,57.35
2018-06-23T03:15:28.863Z,57.26
2018-06-23T03:16:28.874Z,56.97
2018-06-23T03:17:28.933Z,56.97
2018-06-23T03:18:28.905Z,56.87
2018-06-23T03:19:28.933Z,56.59
2018-06-23T03:20:28.933Z,56.77
2018-06-23T03:21:28.914Z,56.49
2018-06-23T03:22:28.921Z,56.68
2018-06-23T03:23:28.943Z,57.35
2018-06-23T03:24:28.966Z,56.65
2018-06-23T03:25:28.993Z,56.65
2018-06-23T03:26:28.970Z,56.77
2018-06-23T03:27:28.981Z,56.59
2018-06-23T03:28:28.986Z,56.59
2018-06-23T03:29:29.018Z,57.06
2018-06-23T03:30:29.070Z,56.68
2018-06-23T03:31:29.076Z,56.59
2018-06-23T03:32:29.034Z,56.10
2018-06-23T03:33:29.056Z,56.59
2018-06-23T03:34:29.054Z,57.04
2018-06-23T03:35:29.083Z,56.84
2018-06-23T03:36:29.109Z,56.84
2018-06-23T03:37:29.127Z,56.97
2018-06-23T03:38:29.389Z,56.56
2018-06-23T03:39:29.182Z,56.68
2018-06-23T03:40:29.119Z,57.26
2018-06-23T03:41:29.202Z,57.26
2018-06-23T03:42:29.200Z,57.06
2018-06-23T03:43:29.139Z,57.16
2018-06-23T03:44:29.168Z,56.65
2018-06-23T03:45:29.179Z,57.32
2018-06-23T03:46:29.206Z,57.32
2018-06-23T03:47:29.211Z,57.23
2018-06-23T03:48:29.498Z,57.26
2018-06-23T03:49:29.206Z,57.90
2018-06-23T03:50:29.257Z,57.80
2018-06-23T03:51:29.241Z,57.80
2018-06-23T03:52:29.230Z,57.92
2018-06-23T03:53:29.528Z,57.54
2018-06-23T03:54:29.264Z,57.61
2018-06-23T03:55:29.292Z,57.61
2018-06-23T03:56:29.302Z,57.90
2018-06-23T03:57:29.334Z,57.83
2018-06-23T03:58:29.326Z,57.83
2018-06-23T03:59:29.414Z,57.90
2018-06-23T04:00:29.336Z,57.90
2018-06-23T04:01:29.348Z,58.09
2018-06-23T04:02:29.340Z,57.90
2018-06-23T04:03:29.363Z,57.99
2018-06-23T04:04:29.411Z,57.73
2018-06-23T04:05:29.423Z,57.99
2018-06-23T04:06:29.397Z,58.18
2018-06-23T04:07:29.402Z,57.99
2018-06-23T04:08:29.428Z,57.99
2018-06-23T04:09:29.540Z,58.40
2018-06-23T04:10:29.462Z,58.28
2018-06-23T04:11:29.528Z,58.56
2018-06-23T04:12:29.454Z,57.70
2018-06-23T04:13:29.473Z,57.99
2018-06-23T04:14:29.489Z,57.61
2018-06-23T04:15:29.514Z,57.80
2018-06-23T04:16:29.525Z,57.80
2018-06-23T04:17:29.537Z,57.80
2018-06-23T04:18:29.517Z,57.51
2018-06-23T04:19:29.538Z,57.80
2018-06-23T04:20:29.525Z,57.51
2018-06-23T04:21:29.545Z,57.80
2018-06-23T04:22:29.595Z,57.92
2018-06-23T04:23:29.558Z,57.90
2018-06-23T04:24:29.586Z,57.54
2018-06-23T04:25:29.597Z,57.54
2018-06-23T04:26:29.611Z,57.32
2018-06-23T04:27:29.666Z,57.16
2018-06-23T04:28:29.684Z,57.23
2018-06-23T04:29:29.638Z,57.23
2018-06-23T04:30:29.652Z,57.13
2018-06-23T04:31:29.659Z,57.06
2018-06-23T04:32:29.656Z,57.35
2018-06-23T04:33:29.721Z,57.35
2018-06-23T04:34:29.701Z,57.06
2018-06-23T04:35:29.681Z,56.87
2018-06-23T04:36:29.775Z,57.06
2018-06-23T04:37:29.737Z,57.45
2018-06-23T04:38:29.735Z,57.16
2018-06-23T04:39:29.733Z,57.35
2018-06-23T04:40:29.745Z,57.83
2018-06-23T04:41:29.780Z,57.92
2018-06-23T04:42:29.826Z,57.92
2018-06-23T04:43:29.898Z,57.83
2018-06-23T04:44:29.817Z,57.73
2018-06-23T04:45:29.853Z,57.54
2018-06-23T04:46:29.907Z,57.83
2018-06-23T04:47:29.844Z,57.64
2018-06-23T04:48:29.822Z,57.54
2018-06-23T04:49:29.883Z,57.64
2018-06-23T04:50:29.842Z,57.92
2018-06-23T04:51:29.870Z,57.54
2018-06-23T04:52:29.924Z,57.73
2018-06-23T04:53:29.877Z,57.73
2018-06-23T04:54:29.954Z,57.83
2018-06-23T04:55:29.917Z,58.15
2018-06-23T04:56:29.931Z,57.83
2018-06-23T04:57:29.947Z,58.12
2018-06-23T04:58:29.989Z,57.73
2018-06-23T04:59:30.042Z,58.02
2018-06-23T05:00:30.015Z,58.40
2018-06-23T05:01:29.961Z,58.40
2018-06-23T05:02:29.983Z,58.44
2018-06-23T05:03:30.006Z,58.15
2018-06-23T05:04:30.031Z,58.31
2018-06-23T05:05:30.029Z,58.44
2018-06-23T05:06:30.043Z,57.67
2018-06-23T05:07:30.039Z,57.64
2018-06-23T05:08:30.060Z,58.05
2018-06-23T05:09:30.057Z,58.02
2018-06-23T05:10:30.118Z,58.59
2018-06-23T05:11:30.068Z,57.95
2018-06-23T05:12:30.106Z,58.15
2018-06-23T05:13:30.127Z,58.15
2018-06-23T05:14:30.124Z,58.59
2018-06-23T05:15:30.146Z,58.34
2018-06-23T05:16:30.153Z,58.53
2018-06-23T05:17:30.170Z,58.81
2018-06-23T05:18:30.157Z,58.34
2018-06-23T05:19:30.156Z,58.24
2018-06-23T05:20:30.173Z,58.44
2018-06-23T05:21:30.267Z,58.91
2018-06-23T05:22:30.196Z,58.59
2018-06-23T05:23:30.210Z,58.53
2018-06-23T05:24:30.208Z,58.53
2018-06-23T05:25:30.215Z,58.91
2018-06-23T05:26:30.256Z,58.91
2018-06-23T05:27:30.246Z,58.15
2018-06-23T05:28:30.316Z,58.53
2018-06-23T05:29:30.284Z,59.01
2018-06-23T05:30:30.302Z,58.15
2018-06-23T05:31:30.279Z,58.15
2018-06-23T05:32:30.384Z,58.15
2018-06-23T05:33:30.380Z,58.15
2018-06-23T05:34:30.341Z,58.44
2018-06-23T05:35:30.336Z,58.24
2018-06-23T05:36:30.598Z,58.72
2018-06-23T05:37:30.353Z,58.34
2018-06-23T05:38:30.372Z,58.62
2018-06-23T05:39:30.447Z,58.44
2018-06-23T05:40:30.386Z,58.91
2018-06-23T05:41:30.404Z,58.62
2018-06-23T05:42:30.419Z,58.91
2018-06-23T05:43:30.449Z,58.72
2018-06-23T05:44:30.434Z,58.34
2018-06-23T05:45:30.445Z,58.62
2018-06-23T05:46:30.453Z,59.11
2018-06-23T05:47:30.464Z,58.34
2018-06-23T05:48:30.510Z,58.34
2018-06-23T05:49:30.512Z,58.62
2018-06-23T05:50:30.575Z,58.34
2018-06-23T05:51:30.531Z,58.91
2018-06-23T05:52:30.525Z,59.20
2018-06-23T05:53:30.620Z,58.34
2018-06-23T05:54:30.541Z,58.53
2018-06-23T05:55:30.543Z,58.44
2018-06-23T05:56:30.618Z,58.24
2018-06-23T05:57:30.595Z,58.24
2018-06-23T05:58:30.643Z,58.15
2018-06-23T05:59:30.590Z,58.53
2018-06-23T06:00:30.604Z,57.95
2018-06-23T06:01:30.656Z,57.76
2018-06-23T06:02:30.682Z,57.70
2018-06-23T06:03:30.638Z,57.95
2018-06-23T06:04:30.647Z,58.17
2018-06-23T06:05:30.671Z,57.76
2018-06-23T06:06:30.676Z,58.05
2018-06-23T06:07:30.715Z,58.53
2018-06-23T06:08:30.724Z,58.72
2018-06-23T06:09:30.702Z,58.53
2018-06-23T06:10:30.728Z,58.44
2018-06-23T06:11:30.719Z,58.91
2018-06-23T06:12:30.787Z,58.75
2018-06-23T06:13:30.786Z,58.91
2018-06-23T06:14:30.763Z,58.72
2018-06-23T06:15:30.834Z,58.62
2018-06-23T06:16:30.777Z,59.04
2018-06-23T06:17:30.795Z,59.01
2018-06-23T06:18:31.294Z,58.75
2018-06-23T06:19:30.833Z,58.84
2018-06-23T06:20:30.818Z,58.81
2018-06-23T06:21:32.296Z,58.94
2018-06-23T06:22:30.860Z,58.44
2018-06-23T06:23:30.860Z,58.91
2018-06-23T06:24:30.915Z,58.44
2018-06-23T06:25:30.885Z,58.53
2018-06-23T06:26:32.240Z,58.56
2018-06-23T06:27:30.916Z,58.53
2018-06-23T06:28:30.915Z,58.34
2018-06-23T06:29:31.047Z,58.15
2018-06-23T06:30:31.070Z,58.75
2018-06-23T06:31:30.990Z,58.37
2018-06-23T06:32:30.968Z,58.34
2018-06-23T06:33:30.955Z,58.81
2018-06-23T06:34:30.966Z,58.94
2018-06-23T06:35:31.053Z,59.01
2018-06-23T06:36:31.009Z,59.20
2018-06-23T06:37:31.010Z,58.81
2018-06-23T06:38:31.035Z,59.48
2018-06-23T06:39:31.066Z,59.87
2018-06-23T06:40:31.137Z,60.16
2018-06-23T06:41:31.063Z,59.77
2018-06-23T06:42:31.063Z,59.87
2018-06-23T06:43:31.090Z,59.97
2018-06-23T06:44:31.125Z,59.61
2018-06-23T06:45:31.090Z,59.77
2018-06-23T06:46:31.099Z,59.90
2018-06-23T06:47:31.176Z,59.39
2018-06-23T06:48:31.133Z,59.58
2018-06-23T06:49:31.129Z,59.71
2018-06-23T06:50:31.190Z,59.97
2018-06-23T06:51:31.167Z,60.00
2018-06-23T06:52:31.224Z,60.19
2018-06-23T06:53:31.196Z,60.28
2018-06-23T06:54:31.229Z,60.28
2018-06-23T06:55:31.210Z,61.34
2018-06-23T06:56:31.210Z,61.24
2018-06-23T06:57:31.241Z,62.68
2018-06-23T06:58:31.246Z,64.02
2018-06-23T06:59:31.252Z,63.80
2018-06-23T07:00:31.269Z,64.02
2018-06-23T07:01:31.311Z,63.54
2018-06-23T07:02:31.307Z,63.92
2018-06-23T07:03:31.423Z,64.89
2018-06-23T07:04:31.289Z,65.46
2018-06-23T07:05:31.477Z,65.65
2018-06-23T07:06:31.446Z,66.22
2018-06-23T07:07:31.382Z,66.89
2018-06-23T07:08:31.405Z,67.28
2018-06-23T07:09:31.363Z,67.95
2018-06-23T07:10:31.365Z,68.05
2018-06-23T07:11:31.392Z,68.62
2018-06-23T07:12:31.604Z,69.10
2018-06-23T07:13:31.456Z,69.54
2018-06-23T07:14:31.457Z,69.87
2018-06-23T07:15:32.101Z,69.87
2018-06-23T07:16:31.434Z,70.83
2018-06-23T07:17:31.497Z,71.50
2018-06-23T07:18:31.477Z,71.88
2018-06-23T07:19:31.485Z,72.27
2018-06-23T07:20:31.488Z,71.98
2018-06-23T07:21:31.643Z,72.36
2018-06-23T07:22:31.508Z,72.36
2018-06-23T07:23:31.577Z,71.98
2018-06-23T07:24:31.603Z,72.45
2018-06-23T07:25:31.539Z,72.27
2018-06-23T07:26:31.551Z,72.64
2018-06-23T07:27:31.547Z,72.49
2018-06-23T07:28:31.583Z,72.49
2018-06-23T07:29:31.600Z,71.92
2018-06-23T07:30:31.579Z,71.50
2018-06-23T07:31:31.589Z,70.76
2018-06-23T07:32:31.623Z,70.73
2018-06-23T07:33:31.640Z,70.29
2018-06-23T07:34:31.792Z,70.38
2018-06-23T07:35:31.660Z,70.38
2018-06-23T07:36:31.665Z,70.73
2018-06-23T07:37:31.707Z,70.35
2018-06-23T07:38:31.759Z,70.57
2018-06-23T07:39:31.684Z,69.62
2018-06-23T07:40:31.743Z,69.81
2018-06-23T07:41:31.780Z,69.42
2018-06-23T07:42:31.738Z,69.90
2018-06-23T07:43:31.757Z,69.90
2018-06-23T07:44:31.773Z,69.62
2018-06-23T07:45:31.751Z,70.38
2018-06-23T07:46:31.873Z,70.48
2018-06-23T07:47:31.791Z,70.29
2018-06-23T07:48:31.785Z,70.29
2018-06-23T07:49:31.811Z,70.38
2018-06-23T07:50:31.807Z,69.81
2018-06-23T07:51:31.851Z,69.71
2018-06-23T07:52:31.856Z,69.81
2018-06-23T07:53:31.982Z,69.13
2018-06-23T07:54:31.906Z,69.23
2018-06-23T07:55:31.870Z,69.33
2018-06-23T07:56:31.879Z,69.33
2018-06-23T07:57:31.909Z,69.52
2018-06-23T07:58:31.953Z,70.19
2018-06-23T07:59:31.952Z,69.62
2018-06-23T08:00:31.915Z,70.09
2018-06-23T08:01:32.014Z,70.00
2018-06-23T08:02:32.009Z,69.90
2018-06-23T08:03:31.962Z,69.23
2018-06-23T08:04:32.027Z,69.23
2018-06-23T08:05:32.015Z,69.71
2018-06-23T08:06:32.001Z,69.23
2018-06-23T08:07:31.991Z,69.71
2018-06-23T08:08:31.996Z,69.42
2018-06-23T08:09:32.071Z,69.39
2018-06-23T08:10:32.033Z,69.23
2018-06-23T08:11:32.056Z,69.33
2018-06-23T08:12:32.065Z,70.00
2018-06-23T08:13:32.065Z,69.23
2018-06-23T08:14:32.129Z,69.62
2018-06-23T08:15:32.127Z,69.90
2018-06-23T08:16:32.125Z,69.68
2018-06-23T08:17:32.144Z,69.23
2018-06-23T08:18:32.180Z,69.42
2018-06-23T08:19:32.147Z,69.20
2018-06-23T08:20:32.416Z,69.33
2018-06-23T08:21:32.156Z,69.71
2018-06-23T08:22:32.187Z,69.23
2018-06-23T08:23:32.203Z,68.62
2018-06-23T08:24:32.206Z,69.01
2018-06-23T08:25:32.215Z,68.81
2018-06-23T08:26:32.323Z,69.42
2018-06-23T08:27:32.369Z,69.33
2018-06-23T08:28:32.242Z,69.77
2018-06-23T08:29:32.255Z,69.29
2018-06-23T08:30:32.267Z,69.39
2018-06-23T08:31:32.318Z,68.81
2018-06-23T08:32:32.282Z,69.04
2018-06-23T08:33:33.276Z,69.52
2018-06-23T08:34:32.303Z,69.62
2018-06-23T08:35:32.338Z,69.23
2018-06-23T08:36:32.340Z,69.62
2018-06-23T08:37:32.335Z,69.52
2018-06-23T08:38:32.464Z,69.13
2018-06-23T08:39:32.409Z,69.13
2018-06-23T08:40:32.503Z,69.33
2018-06-23T08:41:32.397Z,69.71
2018-06-23T08:42:32.539Z,69.13
2018-06-23T08:43:32.464Z,68.95
2018-06-23T08:44:32.470Z,69.13
2018-06-23T08:45:32.474Z,68.27
2018-06-23T08:46:32.510Z,68.27
2018-06-23T08:47:32.468Z,68.66
2018-06-23T08:48:32.456Z,68.85
2018-06-23T08:49:32.513Z,68.56
2018-06-23T08:50:32.534Z,68.37
2018-06-23T08:51:32.487Z,68.18
2018-06-23T08:52:32.583Z,68.56
2018-06-23T08:53:32.634Z,68.52
2018-06-23T08:54:32.512Z,68.37
2018-06-23T08:55:32.531Z,68.18
2018-06-23T08:56:32.586Z,68.46
2018-06-23T08:57:32.618Z,68.85
2018-06-23T08:58:32.574Z,68.85
2018-06-23T08:59:32.603Z,68.46
2018-06-23T09:00:32.690Z,68.27
2018-06-23T09:01:32.650Z,68.46
2018-06-23T09:02:32.659Z,67.99
2018-06-23T09:03:32.642Z,68.02
2018-06-23T09:04:32.838Z,67.92
2018-06-23T09:05:32.637Z,67.73
2018-06-23T09:06:32.676Z,67.44
2018-06-23T09:07:32.706Z,67.63
2018-06-23T09:08:32.675Z,66.96
2018-06-23T09:09:32.771Z,66.96
2018-06-23T09:10:32.704Z,66.77
2018-06-23T09:11:32.766Z,66.96
2018-06-23T09:12:32.743Z,66.86
2018-06-23T09:13:32.763Z,66.86
2018-06-23T09:14:32.789Z,66.58
2018-06-23T09:15:32.773Z,66.67
2018-06-23T09:16:33.783Z,65.91
2018-06-23T09:17:32.853Z,66.10
2018-06-23T09:18:32.806Z,65.91
2018-06-23T09:19:32.851Z,65.81
2018-06-23T09:20:32.843Z,65.91
2018-06-23T09:21:32.841Z,65.62
2018-06-23T09:22:32.871Z,66.00
2018-06-23T09:23:32.907Z,66.13
2018-06-23T09:24:32.889Z,66.13
2018-06-23T09:25:32.986Z,66.03
2018-06-23T09:26:32.900Z,65.56
2018-06-23T09:27:32.909Z,65.84
2018-06-23T09:28:32.909Z,65.17
2018-06-23T09:29:32.932Z,65.27
2018-06-23T09:30:33.092Z,65.56
2018-06-23T09:31:32.994Z,65.46
2018-06-23T09:32:32.995Z,65.46
2018-06-23T09:33:33.001Z,64.79
2018-06-23T09:34:33.018Z,65.08
2018-06-23T09:35:33.063Z,64.89
2018-06-23T09:36:33.045Z,65.17
2018-06-23T09:37:33.080Z,65.36
2018-06-23T09:38:33.039Z,65.36
2018-06-23T09:39:33.043Z,65.08
2018-06-23T09:40:33.153Z,64.92
2018-06-23T09:41:33.115Z,65.30
2018-06-23T09:42:33.098Z,64.92
2018-06-23T09:43:33.098Z,65.01
2018-06-23T09:44:33.169Z,64.72
2018-06-23T09:45:33.335Z,64.15
2018-06-23T09:46:33.134Z,64.72
2018-06-23T09:47:33.143Z,63.96
2018-06-23T09:48:33.155Z,64.15
2018-06-23T09:49:33.191Z,63.76
2018-06-23T09:50:33.198Z,64.05
2018-06-23T09:51:33.224Z,64.15
2018-06-23T09:52:33.315Z,63.76
2018-06-23T09:53:33.199Z,63.22
2018-06-23T09:54:33.244Z,63.12
2018-06-23T09:55:33.261Z,62.61
2018-06-23T09:56:33.279Z,62.71
2018-06-23T09:57:33.259Z,62.90
2018-06-23T09:58:33.290Z,62.81
2018-06-23T09:59:33.282Z,63.09
2018-06-23T10:00:33.339Z,62.81
2018-06-23T10:01:33.310Z,62.71
2018-06-23T10:02:33.345Z,62.71
2018-06-23T10:03:33.357Z,62.90
2018-06-23T10:04:33.350Z,62.42
2018-06-23T10:05:33.376Z,62.42
2018-06-23T10:06:33.673Z,62.61
2018-06-23T10:07:33.810Z,63.09
2018-06-23T10:08:33.393Z,62.81
2018-06-23T10:09:33.417Z,62.71
2018-06-23T10:10:33.399Z,63.09
2018-06-23T10:11:33.463Z,62.81
2018-06-23T10:12:33.449Z,62.61
2018-06-23T10:13:34.452Z,62.32
2018-06-23T10:14:33.499Z,61.55
2018-06-23T10:15:33.713Z,61.94
2018-06-23T10:16:33.503Z,62.16
2018-06-23T10:17:33.531Z,61.87
2018-06-23T10:18:33.544Z,61.97
2018-06-23T10:19:33.523Z,62.26
2018-06-23T10:20:33.521Z,63.12
2018-06-23T10:21:33.568Z,62.93
2018-06-23T10:22:34.158Z,62.84
2018-06-23T10:23:33.597Z,62.26
2018-06-23T10:24:33.609Z,61.97
2018-06-23T10:25:33.657Z,61.97
2018-06-23T10:26:33.637Z,62.10
2018-06-23T10:27:33.643Z,62.58
2018-06-23T10:28:33.653Z,62.10
2018-06-23T10:29:33.722Z,62.19
2018-06-23T10:30:33.672Z,61.52
2018-06-23T10:31:33.677Z,61.04
2018-06-23T10:32:33.704Z,61.04
2018-06-23T10:33:33.752Z,61.04
2018-06-23T10:34:33.724Z,60.85
2018-06-23T10:35:33.767Z,61.14
2018-06-23T10:36:33.738Z,61.04
2018-06-23T10:37:33.759Z,60.46
2018-06-23T10:38:33.814Z,60.66
2018-06-23T10:39:33.785Z,60.08
2018-06-23T10:40:33.996Z,59.79
2018-06-23T10:41:33.803Z,59.89
2018-06-23T10:42:34.024Z,59.92
2018-06-23T10:43:33.804Z,59.92
2018-06-23T10:44:33.842Z,58.54
2018-06-23T10:45:33.864Z,59.31
2018-06-23T10:46:33.851Z,57.39
2018-06-23T10:47:33.965Z,57.20
2018-06-23T10:48:33.902Z,57.48
2018-06-23T10:49:33.927Z,57.77
2018-06-23T10:50:33.939Z,57.20
2018-06-23T10:51:33.914Z,55.91
2018-06-23T10:52:33.929Z,56.98
2018-06-23T10:53:33.967Z,56.59
2018-06-23T10:54:33.982Z,56.40
2018-06-23T10:55:33.970Z,56.30
2018-06-23T10:56:33.966Z,56.88
2018-06-23T10:57:33.978Z,56.68
2018-06-23T10:58:34.071Z,56.40
2018-06-23T10:59:34.067Z,56.21
2018-06-23T11:00:34.016Z,56.88
2018-06-23T11:01:34.028Z,56.59
2018-06-23T11:02:34.068Z,57.07
2018-06-23T11:03:34.070Z,57.07
2018-06-23T11:04:34.097Z,56.11
2018-06-23T11:05:34.145Z,55.82
2018-06-23T11:06:34.109Z,55.73
2018-06-23T11:07:34.109Z,56.01
2018-06-23T11:08:34.167Z,56.33
2018-06-23T11:09:34.138Z,56.30
2018-06-23T11:10:34.188Z,55.85
2018-06-23T11:11:34.164Z,55.91
2018-06-23T11:12:34.222Z,55.56
2018-06-23T11:13:34.182Z,55.66
2018-06-23T11:14:34.226Z,55.18
2018-06-23T11:15:34.210Z,55.08
2018-06-23T11:16:34.250Z,54.79
2018-06-23T11:17:34.265Z,54.79
2018-06-23T11:18:34.288Z,55.08
2018-06-23T11:19:34.264Z,54.31
2018-06-23T11:20:34.276Z,53.25
2018-06-23T11:21:34.354Z,53.64
2018-06-23T11:22:34.407Z,52.94
2018-06-23T11:23:34.335Z,52.84
2018-06-23T11:24:34.481Z,53.13
2018-06-23T11:25:34.340Z,53.13
2018-06-23T11:26:34.370Z,52.94
2018-06-23T11:27:34.350Z,52.94
2018-06-23T11:28:34.391Z,52.84
2018-06-23T11:29:34.367Z,52.75
2018-06-23T11:30:34.421Z,53.16
2018-06-23T11:31:34.416Z,52.77
2018-06-23T11:32:34.415Z,52.84
2018-06-23T11:33:34.418Z,53.54
2018-06-23T11:34:34.456Z,53.45
2018-06-23T11:35:34.481Z,53.45
2018-06-23T11:36:34.487Z,53.74
2018-06-23T11:37:34.492Z,53.64
2018-06-23T11:38:34.513Z,53.35
2018-06-23T11:39:34.516Z,53.64
2018-06-23T11:40:34.577Z,52.77
2018-06-23T11:41:34.648Z,53.06
2018-06-23T11:42:34.534Z,52.97
2018-06-23T11:43:34.556Z,52.00
2018-06-23T11:44:34.583Z,51.91
2018-06-23T11:45:34.597Z,52.48
2018-06-23T11:46:34.638Z,52.10
2018-06-23T11:47:34.660Z,52.77
2018-06-23T11:48:34.602Z,52.97
2018-06-23T11:49:34.640Z,53.06
2018-06-23T11:50:34.647Z,51.91
2018-06-23T11:51:34.677Z,50.76
2018-06-23T11:52:34.677Z,49.60
2018-06-23T11:53:34.727Z,49.29
2018-06-23T11:54:34.675Z,49.96
2018-06-23T11:55:34.697Z,49.48
2018-06-23T11:56:34.761Z,50.15
2018-06-23T11:57:34.745Z,50.05
2018-06-23T11:58:34.748Z,50.05
2018-06-23T11:59:34.751Z,50.27
2018-06-23T12:00:34.744Z,50.46
2018-06-23T12:01:34.763Z,49.99
2018-06-23T12:02:34.780Z,50.66
2018-06-23T12:03:34.870Z,50.85
2018-06-23T12:04:34.848Z,50.56
2018-06-23T12:05:34.842Z,50.37
2018-06-23T12:06:34.836Z,50.56
2018-06-23T12:07:34.835Z,50.85
2018-06-23T12:08:34.899Z,50.95
2018-06-23T12:09:34.862Z,50.08
2018-06-23T12:10:34.883Z,50.46
2018-06-23T12:11:35.091Z,50.08
2018-06-23T12:12:34.903Z,50.66
2018-06-23T12:13:34.973Z,49.60
2018-06-23T12:14:34.926Z,49.51
2018-06-23T12:15:34.935Z,49.22
2018-06-23T12:16:34.952Z,50.18
2018-06-23T12:17:35.030Z,49.41
2018-06-23T12:18:34.976Z,49.22
2018-06-23T12:19:35.002Z,48.85
2018-06-23T12:20:34.992Z,48.74
2018-06-23T12:21:35.034Z,48.25
2018-06-23T12:22:35.072Z,48.47
2018-06-23T12:23:35.058Z,48.35
2018-06-23T12:24:35.051Z,48.18
2018-06-23T12:25:35.155Z,47.68
2018-06-23T12:26:35.088Z,48.47
2018-06-23T12:27:35.087Z,47.99
2018-06-23T12:28:35.124Z,48.57
2018-06-23T12:29:35.098Z,48.85
2018-06-23T12:30:35.210Z,49.63
2018-06-23T12:31:35.141Z,50.87
2018-06-23T12:32:35.154Z,51.93
2018-06-23T12:33:35.164Z,52.32
2018-06-23T12:34:35.501Z,53.19
2018-06-23T12:35:35.301Z,53.47
2018-06-23T12:36:35.200Z,53.57
2018-06-23T12:37:35.281Z,53.57
2018-06-23T12:38:35.233Z,53.57
2018-06-23T12:39:35.251Z,54.53
2018-06-23T12:40:35.277Z,54.63
2018-06-23T12:41:35.278Z,54.34
2018-06-23T12:42:35.305Z,54.46
2018-06-23T12:43:35.277Z,54.63
2018-06-23T12:44:35.310Z,54.82
2018-06-23T12:45:35.333Z,55.13
2018-06-23T12:46:35.327Z,54.85
2018-06-23T12:47:35.382Z,54.53
2018-06-23T12:48:35.371Z,54.46
2018-06-23T12:49:35.370Z,54.34
2018-06-23T12:50:35.409Z,54.43
2018-06-23T12:51:35.395Z,54.82
2018-06-23T12:52:35.623Z,54.63